Chiniot, Pakistan
Current Conditions -  °F | °C
As of 1:55 AM on Sunday 23 Nov 2014 (Local Time) from OPLA Reporting Station
Haze Haze  
Wind Chill: 55°   Ceiling: Unl
Heat Index: 55°   Visibility: 1.5mi
Dew Point: 50°   Wind: 0mph
Humidity: 82%   Direction: NA
Pressure: 29.97"   Gusts: NA
Location:  31.72°N, 72.98°E
Report Text: OPLA 222055Z 00000KT 2500 BR NSC 13/10 Q1015 BECMG 2000
Loading
Personal Weather Stations






























Interactive Weather Map New forecast layout! Learn more

10-Day Weather Forecast

Advertisements
Track Severe Weather on mobile